createdAt,value
2018-09-03T00:01:11.598Z,77.63
2018-09-03T00:03:39.263Z,77.79
2018-09-03T00:06:07.013Z,77.99
2018-09-03T00:08:34.696Z,78.02
2018-09-03T00:11:02.772Z,77.18
2018-09-03T00:13:30.791Z,77.92
2018-09-03T00:15:58.442Z,77.85
2018-09-03T00:18:26.106Z,77.57
2018-09-03T00:20:53.890Z,78.08
2018-09-03T00:23:21.631Z,77.39
2018-09-03T00:25:49.709Z,77.50
2018-09-03T00:28:17.408Z,77.79
2018-09-03T00:30:45.170Z,77.44
2018-09-03T00:33:18.528Z,77.37
2018-09-03T00:35:52.008Z,77.57
2018-09-03T00:38:25.797Z,77.11
2018-09-03T00:40:59.342Z,77.00
2018-09-03T00:43:32.913Z,77.28
2018-09-03T00:48:41.584Z,77.39
2018-09-03T00:51:09.311Z,77.71
2018-09-03T00:53:37.112Z,77.57
2018-09-03T00:56:04.939Z,77.53
2018-09-03T00:58:32.734Z,77.70
2018-09-03T01:01:00.827Z,77.84
2018-09-03T01:03:28.626Z,77.55
2018-09-03T01:05:56.334Z,78.02
2018-09-03T01:08:24.104Z,77.91
2018-09-03T01:10:51.779Z,77.81
2018-09-03T01:13:19.468Z,78.52
2018-09-03T01:15:47.155Z,78.87
2018-09-03T01:18:14.919Z,78.82
2018-09-03T01:20:42.606Z,78.62
2018-09-03T01:23:10.369Z,78.95
2018-09-03T01:25:38.084Z,79.36
2018-09-03T01:28:05.801Z,79.56
2018-09-03T01:30:33.636Z,79.36
2018-09-03T01:33:01.424Z,79.34
2018-09-03T01:35:29.533Z,79.29
2018-09-03T01:37:57.573Z,78.88
2018-09-03T01:40:25.391Z,79.29
2018-09-03T01:42:53.099Z,79.69
2018-09-03T01:45:20.810Z,79.05
2018-09-03T01:47:48.578Z,78.84
2018-09-03T01:50:16.306Z,78.98
2018-09-03T01:52:44.135Z,78.82
2018-09-03T01:55:11.922Z,78.93
2018-09-03T01:57:39.634Z,79.20
2018-09-03T02:00:07.568Z,78.50
2018-09-03T02:02:35.397Z,78.64
2018-09-03T02:05:03.135Z,79.29
2018-09-03T02:07:31.175Z,78.88
2018-09-03T02:09:58.901Z,79.29
2018-09-03T02:12:26.602Z,79.00
2018-09-03T02:14:54.372Z,78.77
2018-09-03T02:17:22.143Z,78.68
2018-09-03T02:19:49.865Z,78.72
2018-09-03T02:22:17.702Z,78.80
2018-09-03T02:24:45.475Z,78.41
2018-09-03T02:27:13.379Z,79.03
2018-09-03T02:29:41.089Z,79.28
2018-09-03T02:32:08.910Z,78.72
2018-09-03T02:34:37.057Z,78.82
2018-09-03T02:37:05.162Z,79.32
2018-09-03T02:39:39.950Z,78.47
2018-09-03T02:42:08.055Z,78.29
2018-09-03T02:44:35.914Z,79.10
2018-09-03T02:47:04.708Z,78.39
2018-09-03T02:49:32.422Z,78.82
2018-09-03T02:52:00.259Z,79.31
2018-09-03T02:54:27.982Z,79.11
2018-09-03T02:56:55.770Z,78.49
2018-09-03T02:59:23.490Z,78.49
2018-09-03T03:01:51.326Z,78.58
2018-09-03T03:04:34.027Z,78.34
2018-09-03T03:07:01.851Z,78.85
2018-09-03T03:09:29.506Z,78.33
2018-09-03T03:11:57.256Z,78.33
2018-09-03T03:14:25.064Z,78.68
2018-09-03T03:16:52.940Z,78.85
2018-09-03T03:19:20.683Z,79.09
2018-09-03T03:21:48.490Z,78.87
2018-09-03T03:24:16.223Z,79.19
2018-09-03T03:26:43.993Z,78.82
2018-09-03T03:29:11.797Z,78.92
2018-09-03T03:31:39.486Z,79.32
2018-09-03T03:34:07.311Z,79.26
2018-09-03T03:36:35.027Z,79.34
2018-09-03T03:39:03.607Z,79.21
2018-09-03T03:41:31.286Z,79.07
2018-09-03T03:43:58.963Z,79.15
2018-09-03T03:46:26.691Z,79.28
2018-09-03T03:48:54.466Z,78.69
2018-09-03T03:51:22.172Z,79.01
2018-09-03T03:53:49.963Z,78.43
2018-09-03T03:56:17.699Z,78.60
2018-09-03T03:58:45.544Z,79.11
2018-09-03T04:01:13.227Z,78.71
2018-09-03T04:03:41.078Z,78.46
2018-09-03T04:06:08.970Z,79.06
2018-09-03T04:08:36.785Z,78.53
2018-09-03T04:11:04.995Z,78.07
2018-09-03T04:13:32.769Z,78.42
2018-09-03T04:16:07.421Z,78.37
2018-09-03T04:18:35.189Z,77.87
2018-09-03T04:21:02.914Z,78.51
2018-09-03T04:23:30.594Z,78.86
2018-09-03T04:25:58.431Z,78.25
2018-09-03T04:28:26.139Z,78.28
2018-09-03T04:30:53.909Z,77.69
2018-09-03T04:33:48.945Z,77.85
2018-09-03T04:36:18.183Z,78.60
2018-09-03T04:38:45.920Z,78.35
2018-09-03T04:41:20.287Z,78.42
2018-09-03T04:43:47.991Z,77.77
2018-09-03T04:46:15.664Z,77.97
2018-09-03T04:48:44.193Z,77.74
2018-09-03T04:51:11.891Z,78.31
2018-09-03T04:53:39.578Z,78.30
2018-09-03T04:56:07.347Z,77.57
2018-09-03T04:58:35.018Z,78.37
2018-09-03T05:01:02.728Z,78.54
2018-09-03T05:03:30.449Z,78.32
2018-09-03T05:06:01.632Z,78.74
2018-09-03T05:08:29.790Z,79.24
2018-09-03T05:10:57.486Z,78.96
2018-09-03T05:13:25.181Z,79.07
2018-09-03T05:15:52.875Z,78.41
2018-09-03T05:18:20.609Z,78.85
2018-09-03T05:20:48.358Z,79.19
2018-09-03T05:23:16.114Z,79.14
2018-09-03T05:25:43.798Z,78.39
2018-09-03T05:28:11.555Z,79.02
2018-09-03T05:30:39.299Z,78.73
2018-09-03T05:33:07.064Z,78.11
2018-09-03T05:35:34.807Z,79.11
2018-09-03T05:38:02.679Z,79.08
2018-09-03T05:40:30.481Z,78.57
2018-09-03T05:42:58.381Z,79.30
2018-09-03T05:45:26.050Z,78.57
2018-09-03T05:47:53.783Z,78.21
2018-09-03T05:50:21.811Z,78.78
2018-09-03T05:52:49.472Z,78.17
2018-09-03T05:55:17.219Z,78.66
2018-09-03T05:57:44.916Z,77.78
2018-09-03T06:00:12.666Z,78.52
2018-09-03T06:02:40.663Z,78.77
2018-09-03T06:05:08.351Z,78.42
2018-09-03T06:07:40.228Z,78.34
2018-09-03T06:10:08.194Z,79.01
2018-09-03T06:12:42.841Z,78.38
2018-09-03T06:15:10.544Z,78.84
2018-09-03T06:17:38.660Z,78.14
2018-09-03T06:20:06.762Z,77.85
2018-09-03T06:22:34.479Z,77.85
2018-09-03T06:25:02.664Z,77.14
2018-09-03T06:27:30.370Z,77.27
2018-09-03T06:29:58.106Z,76.92
2018-09-03T06:32:25.865Z,77.03
2018-09-03T06:34:53.641Z,77.11
2018-09-03T06:37:21.391Z,76.60
2018-09-03T06:39:49.111Z,76.49
2018-09-03T06:42:16.826Z,76.25
2018-09-03T06:44:45.624Z,76.87
2018-09-03T06:47:13.664Z,76.41
2018-09-03T06:49:41.587Z,76.18
2018-09-03T06:52:09.331Z,76.05
2018-09-03T06:54:37.062Z,76.70
2018-09-03T06:57:05.075Z,76.34
2018-09-03T06:59:32.824Z,75.43
2018-09-03T07:02:00.763Z,74.78
2018-09-03T07:04:28.571Z,74.95
2018-09-03T07:06:56.352Z,74.68
2018-09-03T07:09:24.039Z,73.87
2018-09-03T07:11:51.832Z,73.41
2018-09-03T07:14:19.552Z,73.03
2018-09-03T07:16:47.645Z,72.37
2018-09-03T07:19:15.430Z,72.71
2018-09-03T07:21:43.169Z,72.90
2018-09-03T07:24:10.847Z,72.50
2018-09-03T07:26:38.580Z,72.76
2018-09-03T07:29:06.351Z,72.69
2018-09-03T07:31:34.032Z,71.75
2018-09-03T07:34:05.138Z,71.91
2018-09-03T07:36:32.897Z,71.62
2018-09-03T07:39:00.784Z,72.14
2018-09-03T07:41:28.511Z,71.89
2018-09-03T07:43:56.229Z,71.06
2018-09-03T07:46:23.973Z,71.75
2018-09-03T07:48:51.898Z,71.59
2018-09-03T07:51:19.587Z,71.24
2018-09-03T07:53:47.584Z,70.45
2018-09-03T07:56:15.274Z,71.01
2018-09-03T07:58:43.045Z,70.33
2018-09-03T08:01:11.053Z,70.03
2018-09-03T08:03:38.742Z,69.78
2018-09-03T08:06:06.667Z,69.87
2018-09-03T08:08:34.355Z,69.63
2018-09-03T08:11:02.178Z,69.70
2018-09-03T08:13:38.130Z,69.95
2018-09-03T08:16:06.063Z,70.32
2018-09-03T08:18:33.874Z,69.59
2018-09-03T08:21:01.591Z,68.96
2018-09-03T08:23:29.361Z,68.71
2018-09-03T08:25:57.126Z,68.92
2018-09-03T08:28:24.851Z,69.36
2018-09-03T08:30:52.694Z,68.91
2018-09-03T08:33:20.390Z,68.09
2018-09-03T08:35:48.109Z,67.80
2018-09-03T08:38:15.855Z,67.39
2018-09-03T08:40:43.682Z,67.21
2018-09-03T08:43:11.557Z,67.20
2018-09-03T08:45:42.493Z,67.20
2018-09-03T08:48:10.319Z,67.20
2018-09-03T08:50:38.331Z,66.33
2018-09-03T08:53:06.304Z,66.15
2018-09-03T08:55:34.086Z,65.94
2018-09-03T08:58:02.112Z,65.72
2018-09-03T09:00:29.802Z,64.83
2018-09-03T09:02:57.571Z,65.14
2018-09-03T09:05:25.399Z,64.26
2018-09-03T09:07:53.259Z,63.40
2018-09-03T09:10:21.148Z,63.21
2018-09-03T09:12:48.967Z,63.05
2018-09-03T09:15:16.938Z,63.22
2018-09-03T09:17:44.728Z,60.63
2018-09-03T09:20:12.406Z,59.11
2018-09-03T09:22:40.211Z,59.26
2018-09-03T09:25:08.022Z,58.69
2018-09-03T09:27:35.674Z,58.13
2018-09-03T09:30:04.714Z,57.40
2018-09-03T09:32:32.402Z,55.08
2018-09-03T09:35:00.480Z,55.07
2018-09-03T09:37:28.155Z,52.59
2018-09-03T09:39:55.908Z,53.59
2018-09-03T09:42:23.762Z,52.05
2018-09-03T09:44:51.767Z,49.96
2018-09-03T09:47:19.984Z,51.79
2018-09-03T09:49:47.678Z,49.60
2018-09-03T09:52:15.475Z,50.76
2018-09-03T09:54:43.333Z,50.49
2018-09-03T09:57:11.039Z,49.32
2018-09-03T09:59:39.342Z,50.95
2018-09-03T10:02:07.221Z,49.42
2018-09-03T10:04:34.904Z,50.20
2018-09-03T10:07:02.707Z,51.31
2018-09-03T10:09:30.415Z,50.60
2018-09-03T10:12:01.665Z,50.86
2018-09-03T10:14:29.507Z,50.36
2018-09-03T10:16:57.229Z,50.75
2018-09-03T10:19:25.007Z,50.96
2018-09-03T10:21:52.747Z,51.74
2018-09-03T10:24:20.422Z,52.41
2018-09-03T10:26:48.193Z,51.59
2018-09-03T10:29:15.870Z,52.41
2018-09-03T10:31:43.651Z,52.77
2018-09-03T10:34:11.346Z,52.71
2018-09-03T10:36:39.223Z,52.65
2018-09-03T10:39:07.459Z,51.90
2018-09-03T10:41:35.492Z,52.83
2018-09-03T10:44:03.291Z,51.50
2018-09-03T10:46:31.059Z,52.60
2018-09-03T10:48:58.767Z,52.08
2018-09-03T10:51:26.527Z,51.33
2018-09-03T10:53:54.342Z,52.26
2018-09-03T10:56:22.191Z,52.51
2018-09-03T10:58:49.955Z,50.72
2018-09-03T11:03:57.600Z,50.46
2018-09-03T11:06:25.276Z,49.46
2018-09-03T11:08:53.135Z,50.32
2018-09-03T11:11:21.055Z,49.92
2018-09-03T11:13:48.883Z,49.64
2018-09-03T11:16:16.689Z,48.61
2018-09-03T11:18:44.438Z,48.55
2018-09-03T11:21:13.113Z,46.43
2018-09-03T11:23:40.706Z,47.71
2018-09-03T11:26:08.435Z,45.30
2018-09-03T11:28:36.181Z,44.86
2018-09-03T11:31:07.659Z,45.49
2018-09-03T11:33:35.343Z,45.76
2018-09-03T11:36:09.237Z,43.82
2018-09-03T11:38:37.055Z,44.13
2018-09-03T11:41:04.739Z,42.67
2018-09-03T11:43:32.409Z,42.63
2018-09-03T11:46:00.423Z,41.19
2018-09-03T11:48:28.125Z,42.79
2018-09-03T11:50:55.910Z,42.92
2018-09-03T11:53:23.597Z,44.93
2018-09-03T11:55:51.354Z,46.73
2018-09-03T11:58:19.098Z,46.80
2018-09-03T12:00:46.940Z,47.84
2018-09-03T12:03:21.151Z,48.17
2018-09-03T12:05:48.898Z,48.18
2018-09-03T12:08:16.591Z,48.67
2018-09-03T12:10:44.612Z,49.01
2018-09-03T12:13:12.302Z,48.79
2018-09-03T12:15:43.190Z,48.06
2018-09-03T12:18:11.272Z,48.79
2018-09-03T12:20:38.932Z,46.69
2018-09-03T12:23:06.619Z,47.63
2018-09-03T12:25:34.294Z,46.30
2018-09-03T12:28:02.293Z,46.37
2018-09-03T12:30:30.000Z,46.43
2018-09-03T12:32:58.502Z,45.14
2018-09-03T12:35:26.219Z,47.49
2018-09-03T12:37:54.087Z,46.24
2018-09-03T12:40:21.802Z,45.77
2018-09-03T12:42:49.589Z,46.53
2018-09-03T12:45:21.300Z,46.16
2018-09-03T12:47:49.112Z,47.92
2018-09-03T12:50:16.863Z,46.92
2018-09-03T12:52:44.783Z,47.42
2018-09-03T12:55:12.598Z,46.00
2018-09-03T12:57:40.263Z,45.94
2018-09-03T13:00:09.739Z,47.55
2018-09-03T13:02:39.413Z,47.82
2018-09-03T13:05:05.235Z,47.98
2018-09-03T13:07:32.975Z,47.78
2018-09-03T13:10:00.703Z,48.70
2018-09-03T13:12:28.452Z,47.47
2018-09-03T13:14:56.135Z,47.92
2018-09-03T13:17:23.797Z,47.98
2018-09-03T13:19:51.499Z,47.50
2018-09-03T13:22:19.362Z,47.91
2018-09-03T13:24:47.220Z,47.43
2018-09-03T13:27:17.139Z,48.11
2018-09-03T13:29:44.955Z,49.39
2018-09-03T13:32:12.662Z,48.13
2018-09-03T13:34:44.726Z,48.53
2018-09-03T13:37:12.423Z,49.03
2018-09-03T13:39:40.211Z,49.02
2018-09-03T13:42:07.981Z,49.89
2018-09-03T13:44:35.670Z,48.80
2018-09-03T13:47:03.400Z,49.92
2018-09-03T13:49:31.152Z,49.64
2018-09-03T13:51:58.980Z,48.67
2018-09-03T13:54:26.683Z,48.35
2018-09-03T13:56:54.503Z,49.30
2018-09-03T13:59:22.488Z,48.80
2018-09-03T14:01:50.827Z,48.78
2018-09-03T14:04:18.746Z,49.86
2018-09-03T14:06:46.502Z,49.63
2018-09-03T14:09:14.207Z,49.15
2018-09-03T14:11:42.062Z,50.76
2018-09-03T14:14:10.127Z,49.24
2018-09-03T14:16:37.875Z,48.58
2018-09-03T14:19:05.868Z,49.86
2018-09-03T14:21:33.581Z,49.46
2018-09-03T14:24:01.387Z,48.16
2018-09-03T14:26:29.138Z,48.68
2018-09-03T14:28:56.806Z,50.34
2018-09-03T14:31:24.575Z,48.86
2018-09-03T14:33:52.512Z,49.07
2018-09-03T14:36:20.316Z,49.60
2018-09-03T14:38:48.027Z,49.16
2018-09-03T14:41:15.770Z,49.15
2018-09-03T14:43:44.378Z,49.45
2018-09-03T14:46:12.291Z,49.44
2018-09-03T14:48:40.263Z,47.58
2018-09-03T14:51:12.006Z,48.85
2018-09-03T14:53:45.415Z,48.55
2018-09-03T14:56:13.207Z,49.13
2018-09-03T14:58:41.063Z,48.84
2018-09-03T15:01:08.939Z,48.90
2018-09-03T15:03:37.245Z,48.17
2018-09-03T15:06:05.394Z,48.32
2018-09-03T15:08:33.277Z,48.17
2018-09-03T15:11:01.217Z,47.48
2018-09-03T15:13:28.884Z,47.95
2018-09-03T15:15:56.932Z,47.37
2018-09-03T15:18:24.651Z,46.83
2018-09-03T15:20:52.359Z,47.02
2018-09-03T15:23:20.195Z,47.03
2018-09-03T15:25:47.929Z,47.28
2018-09-03T15:28:15.719Z,47.87
2018-09-03T15:30:43.395Z,47.26
2018-09-03T15:33:11.071Z,46.89
2018-09-03T15:35:39.075Z,46.63
2018-09-03T15:38:06.982Z,46.87
2018-09-03T15:40:34.646Z,47.15
2018-09-03T15:43:02.705Z,47.69
2018-09-03T15:45:30.388Z,47.04
2018-09-03T15:47:58.242Z,47.06
2018-09-03T15:50:26.043Z,47.27
2018-09-03T15:52:54.019Z,47.61
2018-09-03T15:55:21.829Z,47.17
2018-09-03T15:57:50.245Z,47.50
2018-09-03T16:00:17.976Z,49.00
2018-09-03T16:02:45.768Z,48.54
2018-09-03T16:05:13.454Z,49.00
2018-09-03T16:07:41.182Z,49.30
2018-09-03T16:10:08.998Z,48.65
2018-09-03T16:12:36.843Z,48.69
2018-09-03T16:15:05.040Z,49.99
2018-09-03T16:17:32.759Z,49.90
2018-09-03T16:20:00.665Z,49.91
2018-09-03T16:22:28.411Z,49.25
2018-09-03T16:24:56.257Z,49.56
2018-09-03T16:27:24.292Z,50.65
2018-09-03T16:29:51.972Z,50.03
2018-09-03T16:32:19.687Z,49.94
2018-09-03T16:34:47.391Z,50.23
2018-09-03T16:37:15.088Z,50.31
2018-09-03T16:39:42.784Z,50.44
2018-09-03T16:42:10.486Z,51.15
2018-09-03T16:44:38.235Z,50.75
2018-09-03T16:47:06.576Z,51.49
2018-09-03T16:49:34.266Z,51.15
2018-09-03T16:52:02.130Z,51.95
2018-09-03T16:54:33.636Z,51.68
2018-09-03T16:57:01.414Z,51.64
2018-09-03T16:59:29.212Z,52.38
2018-09-03T17:01:57.507Z,51.84
2018-09-03T17:04:25.574Z,52.35
2018-09-03T17:06:53.382Z,52.25
2018-09-03T17:09:21.415Z,52.77
2018-09-03T17:11:49.130Z,53.56
2018-09-03T17:14:16.946Z,52.76
2018-09-03T17:16:44.627Z,53.07
2018-09-03T17:19:12.624Z,52.17
2018-09-03T17:21:40.370Z,53.09
2018-09-03T17:24:08.398Z,53.02
2018-09-03T17:26:36.227Z,52.55
2018-09-03T17:29:04.133Z,52.15
2018-09-03T17:31:32.219Z,52.40
2018-09-03T17:33:59.891Z,53.31
2018-09-03T17:36:27.728Z,53.50
2018-09-03T17:38:55.538Z,54.64
2018-09-03T17:41:23.351Z,54.76
2018-09-03T17:43:51.153Z,55.16
2018-09-03T17:46:18.987Z,55.30
2018-09-03T17:48:46.775Z,55.38
2018-09-03T17:51:14.540Z,54.45
2018-09-03T17:53:51.822Z,55.89
2018-09-03T17:56:23.641Z,55.75
2018-09-03T17:58:52.149Z,56.38
2018-09-03T18:01:20.251Z,56.49
2018-09-03T18:03:48.032Z,56.21
2018-09-03T18:06:15.917Z,56.60
2018-09-03T18:08:43.715Z,57.39
2018-09-03T18:11:11.798Z,56.81
2018-09-03T18:13:39.528Z,57.61
2018-09-03T18:16:07.202Z,58.55
2018-09-03T18:18:34.918Z,58.23
2018-09-03T18:21:02.766Z,59.01
2018-09-03T18:23:30.821Z,58.75
2018-09-03T18:25:58.519Z,59.53
2018-09-03T18:28:26.206Z,60.00
2018-09-03T18:30:53.986Z,60.29
2018-09-03T18:33:21.714Z,60.55
2018-09-03T18:35:49.560Z,61.10
2018-09-03T18:38:17.532Z,60.70
2018-09-03T18:40:45.229Z,61.17
2018-09-03T18:43:13.204Z,60.40
2018-09-03T18:45:40.925Z,60.21
2018-09-03T18:48:08.680Z,60.82
2018-09-03T18:50:36.562Z,60.99
2018-09-03T18:53:04.371Z,60.79
2018-09-03T18:55:32.614Z,60.93
2018-09-03T18:58:00.350Z,61.21
2018-09-03T19:00:28.225Z,61.34
2018-09-03T19:02:55.883Z,62.20
2018-09-03T19:05:23.582Z,62.37
2018-09-03T19:07:51.438Z,62.57
2018-09-03T19:10:19.226Z,62.13
2018-09-03T19:12:46.914Z,62.67
2018-09-03T19:15:15.702Z,62.96
2018-09-03T19:17:43.431Z,62.84
2018-09-03T19:20:11.275Z,62.58
2018-09-03T19:22:39.017Z,62.48
2018-09-03T19:25:06.775Z,62.60
2018-09-03T19:27:34.498Z,63.42
2018-09-03T19:30:02.411Z,62.96
2018-09-03T19:32:30.183Z,63.28
2018-09-03T19:34:57.937Z,64.00
2018-09-03T19:37:25.679Z,64.69
2018-09-03T19:39:57.161Z,64.17
2018-09-03T19:42:24.932Z,64.10
2018-09-03T19:44:52.902Z,63.61
2018-09-03T19:47:20.626Z,63.97
2018-09-03T19:49:48.415Z,63.62
2018-09-03T19:52:16.199Z,63.90
2018-09-03T19:54:45.111Z,63.93
2018-09-03T19:57:12.814Z,64.79
2018-09-03T19:59:40.570Z,64.23
2018-09-03T20:02:08.877Z,64.80
2018-09-03T20:04:37.670Z,64.98
2018-09-03T20:07:05.462Z,65.31
2018-09-03T20:09:33.156Z,64.48
2018-09-03T20:12:00.976Z,64.08
2018-09-03T20:14:29.067Z,64.44
2018-09-03T20:16:57.732Z,64.53
2018-09-03T20:19:25.410Z,64.82
2018-09-03T20:21:53.138Z,65.19
2018-09-03T20:24:21.115Z,65.21
2018-09-03T20:26:48.851Z,65.05
2018-09-03T20:29:16.566Z,64.79
2018-09-03T20:31:44.571Z,64.62
2018-09-03T20:34:12.268Z,64.78
2018-09-03T20:36:39.950Z,64.91
2018-09-03T20:39:07.702Z,65.69
2018-09-03T20:41:35.665Z,64.66
2018-09-03T20:44:03.522Z,65.08
2018-09-03T20:46:31.686Z,65.14
2018-09-03T20:49:00.062Z,65.72
2018-09-03T20:51:27.845Z,66.04
2018-09-03T20:53:55.611Z,65.57
2018-09-03T20:56:23.363Z,66.51
2018-09-03T20:58:51.293Z,65.88
2018-09-03T21:01:19.328Z,66.34
2018-09-03T21:03:47.096Z,66.24
2018-09-03T21:06:18.303Z,66.42
2018-09-03T21:08:46.034Z,67.40
2018-09-03T21:11:13.774Z,67.59
2018-09-03T21:13:41.469Z,67.67
2018-09-03T21:16:09.150Z,67.79
2018-09-03T21:18:36.868Z,67.85
2018-09-03T21:21:04.926Z,67.84
2018-09-03T21:23:32.621Z,68.32
2018-09-03T21:26:00.420Z,67.91
2018-09-03T21:28:28.149Z,68.09
2018-09-03T21:30:57.038Z,68.70
2018-09-03T21:33:24.715Z,69.15
2018-09-03T21:35:52.477Z,68.47
2018-09-03T21:38:20.528Z,68.60
2018-09-03T21:40:48.263Z,68.08
2018-09-03T21:43:16.023Z,68.78
2018-09-03T21:45:44.088Z,68.83
2018-09-03T21:48:11.771Z,69.38
2018-09-03T21:50:39.541Z,68.71
2018-09-03T21:53:07.262Z,69.46
2018-09-03T21:55:35.030Z,69.43
2018-09-03T21:58:02.774Z,69.49
2018-09-03T22:00:30.531Z,70.09
2018-09-03T22:02:58.287Z,69.71
2018-09-03T22:05:26.101Z,69.97
2018-09-03T22:07:53.880Z,69.57
2018-09-03T22:10:21.810Z,69.59
2018-09-03T22:12:49.525Z,70.11
2018-09-03T22:15:17.407Z,69.33
2018-09-03T22:17:45.383Z,69.90
2018-09-03T22:20:13.119Z,69.59
2018-09-03T22:22:40.844Z,70.52
2018-09-03T22:25:08.579Z,70.33
2018-09-03T22:27:36.272Z,70.36
2018-09-03T22:30:04.676Z,70.41
2018-09-03T22:32:32.360Z,69.73
2018-09-03T22:35:00.291Z,70.64
2018-09-03T22:37:28.038Z,70.58
2018-09-03T22:39:55.707Z,70.26
2018-09-03T22:42:25.994Z,70.50
2018-09-03T22:44:55.228Z,70.30
2018-09-03T22:47:22.987Z,71.05
2018-09-03T22:49:50.678Z,71.26
2018-09-03T22:52:18.382Z,70.32
2018-09-03T22:54:49.742Z,70.09
2018-09-03T22:57:17.602Z,70.58
2018-09-03T22:59:45.276Z,70.86
2018-09-03T23:02:13.182Z,70.33
2018-09-03T23:04:40.887Z,70.75
2018-09-03T23:07:08.583Z,70.54
2018-09-03T23:09:36.326Z,70.50
2018-09-03T23:12:04.059Z,70.57
2018-09-03T23:14:31.774Z,70.87
2018-09-03T23:16:59.617Z,71.09
2018-09-03T23:19:27.414Z,71.11
2018-09-03T23:21:55.127Z,71.21
2018-09-03T23:24:22.894Z,71.47
2018-09-03T23:26:50.599Z,71.37
2018-09-03T23:29:18.640Z,70.83
2018-09-03T23:31:46.313Z,71.02
2018-09-03T23:34:14.065Z,71.24
2018-09-03T23:36:41.797Z,70.89
2018-09-03T23:39:09.502Z,71.21
2018-09-03T23:41:37.175Z,71.67
2018-09-03T23:44:11.757Z,71.53
2018-09-03T23:46:39.623Z,71.10
2018-09-03T23:49:07.353Z,70.75
2018-09-03T23:51:35.043Z,71.75
2018-09-03T23:54:02.846Z,71.01
2018-09-03T23:56:30.510Z,71.23
2018-09-03T23:58:58.200Z,71.05
